Time;durP1;ratioP1;P1;durP2;ratioP2;P2;SDS_P1;SDS_P2;PMS_P1;PMS_P2;Temp;Humidity;BMP_temperature;BMP_pressure;BME280_temperature;BME280_humidity;BME280_pressure;Samples;Min_cycle;Max_cycle;Signal;HPM_P1;HPM_P2
2021/04/10 00:00:20;;;;;;;0.00;0.00;;;15.60;64.50;;;;;;4215553;28;19957;-41
2021/04/10 00:02:42;;;;;;;0.00;0.00;;;15.70;64.70;;;;;;4198726;28;20052;-43
2021/04/10 00:05:09;;;;;;;0.00;0.00;;;15.70;64.70;;;;;;4198754;28;20131;-42
2021/04/10 00:07:30;;;;;;;0.00;0.00;;;15.70;64.60;;;;;;4198669;28;20128;-41
2021/04/10 00:09:51;;;;;;;;;;;15.70;64.60;;;;;;4199129;28;20249;-41
2021/04/10 00:12:12;;;;;;;0.10;0.10;;;15.70;64.50;;;;;;4213369;28;19931;-41
2021/04/10 00:14:34;;;;;;;;;;;15.70;64.70;;;;;;4215714;28;20086;-41
2021/04/10 00:16:59;;;;;;;0.00;0.00;;;15.70;64.70;;;;;;4215306;28;19966;-42
2021/04/10 00:19:21;;;;;;;0.00;0.00;;;15.70;64.50;;;;;;4215229;28;20647;-44
2021/04/10 00:21:44;;;;;;;0.10;0.10;;;15.70;64.40;;;;;;4215132;28;20120;-42
2021/04/10 00:24:07;;;;;;;0.00;0.00;;;15.70;64.40;;;;;;4215083;28;20048;-41
2021/04/10 00:26:29;;;;;;;0.00;0.00;;;15.90;64.10;;;;;;4215042;28;20048;-41
2021/04/10 00:28:50;;;;;;;0.00;0.00;;;16.00;63.60;;;;;;4214543;28;20052;-41
2021/04/10 00:31:11;;;;;;;0.00;0.00;;;16.10;63.20;;;;;;4215069;28;20121;-42
2021/04/10 00:33:34;;;;;;;0.00;0.00;;;16.20;63.00;;;;;;4215027;28;20044;-41
2021/04/10 00:35:55;;;;;;;0.00;0.00;;;16.20;63.00;;;;;;4214644;28;20098;-41
2021/04/10 00:38:19;;;;;;;0.00;0.00;;;16.20;63.10;;;;;;4215061;28;20052;-41
2021/04/10 00:40:40;;;;;;;0.00;0.00;;;16.10;63.10;;;;;;4215013;28;20130;-41
2021/04/10 00:43:01;;;;;;;0.00;0.00;;;16.10;63.30;;;;;;4214939;28;20520;-40
2021/04/10 00:45:21;;;;;;;0.00;0.00;;;16.00;63.50;;;;;;4214586;28;20784;-41
2021/04/10 00:47:43;;;;;;;0.00;0.00;;;16.00;64.60;;;;;;4214815;28;20056;-43
2021/04/10 00:50:06;;;;;;;0.38;0.38;;;15.90;63.90;;;;;;4214734;28;20048;-41
2021/04/10 00:52:28;;;;;;;0.00;0.00;;;15.90;64.00;;;;;;4197971;28;20055;-41
2021/04/10 00:54:53;;;;;;;0.45;0.45;;;16.00;63.80;;;;;;4196889;28;20106;-43
2021/04/10 00:57:17;;;;;;;0.00;0.00;;;16.00;63.70;;;;;;4201181;28;20533;-41
2021/04/10 00:59:38;;;;;;;0.00;0.00;;;16.00;63.60;;;;;;4213430;28;20499;-41
2021/04/10 01:02:02;;;;;;;0.00;0.00;;;16.00;63.70;;;;;;4214202;28;20107;-41
2021/04/10 01:04:23;;;;;;;0.08;0.08;;;15.90;63.80;;;;;;4214021;28;20136;-41
2021/04/10 01:06:46;;;;;;;0.00;0.00;;;15.90;64.00;;;;;;4214496;28;20486;-41
2021/04/10 01:09:08;;;;;;;0.00;0.00;;;15.90;63.80;;;;;;4213356;28;20429;-41
2021/04/10 01:11:40;;;;;;;0.00;0.00;;;16.00;64.10;;;;;;4213784;28;20044;-41
2021/04/10 01:14:08;;;;;;;0.00;0.00;;;16.00;63.50;;;;;;4213256;28;20758;-41
2021/04/10 01:16:34;;;;;;;0.00;0.00;;;16.10;63.30;;;;;;4214282;28;20126;-41
2021/04/10 01:19:04;;;;;;;0.00;0.00;;;16.10;63.30;;;;;;4196661;28;20049;-41
2021/04/10 01:21:32;;;;;;;0.00;0.00;;;16.10;63.10;;;;;;4210983;28;20059;-40
2021/04/10 01:24:33;;;;;;;0.05;0.05;;;16.30;62.60;;;;;;4212856;28;20714;-41
2021/04/10 01:27:21;;;;;;;0.00;0.00;;;16.40;62.10;;;;;;4214277;28;20060;-42
2021/04/10 01:29:55;;;;;;;1.35;0.90;;;16.50;61.90;;;;;;4212607;28;20449;-44
2021/04/10 01:32:18;;;;;;;0.43;0.43;;;16.40;61.90;;;;;;4214164;28;20062;-43
2021/04/10 01:34:44;;;;;;;0.00;0.00;;;16.40;62.10;;;;;;4212923;28;20098;-41
2021/04/10 01:37:10;;;;;;;0.00;0.00;;;16.30;62.20;;;;;;4213699;28;20052;-44
2021/04/10 01:39:34;;;;;;;0.90;0.65;;;16.30;62.40;;;;;;4212593;28;20064;-48
2021/04/10 01:41:57;;;;;;;0.00;0.00;;;16.20;62.50;;;;;;4212509;28;20044;-46
2021/04/10 01:44:19;;;;;;;0.15;0.15;;;16.20;62.80;;;;;;4213266;28;20075;-41
2021/04/10 01:46:48;;;;;;;0.47;0.47;;;16.20;62.90;;;;;;4213672;28;20651;-40
2021/04/10 01:49:10;;;;;;;0.00;0.00;;;16.20;62.70;;;;;;4213774;28;20051;-41
2021/04/10 01:51:32;;;;;;;0.00;0.00;;;16.20;62.80;;;;;;4213552;28;20556;-40
2021/04/10 01:53:54;;;;;;;0.22;0.20;;;16.10;62.90;;;;;;4213782;28;20461;-41
2021/04/10 01:56:19;;;;;;;0.00;0.00;;;16.10;63.00;;;;;;4212343;28;20094;-42
2021/04/10 01:58:48;;;;;;;0.00;0.00;;;16.10;63.20;;;;;;4212547;28;20052;-41
2021/04/10 02:01:14;;;;;;;0.10;0.10;;;16.00;63.50;;;;;;4212238;28;20048;-41
2021/04/10 02:03:40;;;;;;;0.00;0.00;;;16.00;63.80;;;;;;4212217;28;20130;-41
2021/04/10 02:06:02;;;;;;;0.00;0.00;;;16.10;63.30;;;;;;4212009;28;20060;-41
2021/04/10 02:08:35;;;;;;;0.00;0.00;;;16.40;62.40;;;;;;4211738;28;20100;-41
2021/04/10 02:11:06;;;;;;;0.00;0.00;;;16.60;61.50;;;;;;4213145;28;20055;-41
2021/04/10 02:13:39;;;;;;;0.13;0.13;;;16.70;61.10;;;;;;4213476;28;20105;-41
2021/04/10 02:16:06;;;;;;;0.00;0.00;;;16.70;61.00;;;;;;4212066;28;20415;-42
2021/04/10 02:18:34;;;;;;;0.00;0.00;;;16.60;61.10;;;;;;4212321;28;20150;-41
2021/04/10 02:21:04;;;;;;;0.00;0.00;;;16.60;61.50;;;;;;4211717;28;20138;-41
2021/04/10 02:23:28;;;;;;;0.00;0.00;;;16.50;61.50;;;;;;4212897;28;20052;-41
2021/04/10 02:25:58;;;;;;;0.00;0.00;;;16.40;61.90;;;;;;4212078;28;20127;-42
2021/04/10 02:28:20;;;;;;;0.00;0.00;;;16.30;62.30;;;;;;4212087;28;20339;-41
2021/04/10 02:30:42;;;;;;;0.00;0.00;;;16.20;62.70;;;;;;4211616;28;20546;-41
2021/04/10 02:33:09;;;;;;;0.00;0.00;;;16.10;63.00;;;;;;4211957;28;20138;-41
2021/04/10 02:35:39;;;;;;;0.00;0.00;;;16.00;63.30;;;;;;4212783;28;20056;-40
2021/04/10 02:38:03;;;;;;;0.00;0.00;;;16.00;63.70;;;;;;4196272;28;20052;-42
2021/04/10 02:40:30;;;;;;;0.00;0.00;;;15.90;63.90;;;;;;4204050;28;20105;-41
2021/04/10 02:42:55;;;;;;;0.00;0.00;;;16.00;63.70;;;;;;4211901;28;20076;-41
2021/04/10 02:45:25;;;;;;;0.00;0.00;;;16.10;63.20;;;;;;4211798;28;20113;-41
2021/04/10 02:47:50;;;;;;;0.15;0.15;;;16.20;63.00;;;;;;4212743;28;20056;-41
2021/04/10 02:50:16;;;;;;;0.00;0.00;;;16.20;62.90;;;;;;4211525;28;20048;-40
2021/04/10 02:52:41;;;;;;;0.00;0.00;;;16.30;62.70;;;;;;4211813;28;20146;-41
2021/04/10 02:55:07;;;;;;;0.00;0.00;;;16.30;62.50;;;;;;4211696;28;20093;-42
2021/04/10 02:57:31;;;;;;;0.00;0.00;;;16.40;62.20;;;;;;4196010;28;20080;-42
2021/04/10 03:00:01;;;;;;;0.00;0.00;;;16.60;61.70;;;;;;4197545;28;20055;-42
2021/04/10 03:02:26;;;;;;;0.00;0.00;;;16.70;61.00;;;;;;4195930;28;20049;-43
2021/04/10 03:04:54;;;;;;;0.50;0.50;;;16.80;60.70;;;;;;4211273;28;20575;-41
2021/04/10 03:07:18;;;;;;;0.00;0.00;;;16.80;60.70;;;;;;4211320;28;20065;-41
2021/04/10 03:09:43;;;;;;;0.00;0.00;;;16.70;60.90;;;;;;4212580;28;20505;-41
2021/04/10 03:12:08;;;;;;;2.83;0.38;;;16.60;61.20;;;;;;4212624;28;20153;-41
2021/04/10 03:14:29;;;;;;;0.55;0.55;;;16.50;61.50;;;;;;4212591;28;20527;-41
2021/04/10 03:16:51;;;;;;;0.00;0.00;;;16.40;61.90;;;;;;4211337;28;20055;-42
2021/04/10 03:19:19;;;;;;;0.00;0.00;;;16.30;62.20;;;;;;4210988;28;20056;-41
2021/04/10 03:21:46;;;;;;;0.00;0.00;;;16.20;62.50;;;;;;4212449;28;20051;-41
2021/04/10 03:24:09;;;;;;;0.00;0.00;;;16.10;62.80;;;;;;4211354;28;20122;-42
2021/04/10 03:26:31;;;;;;;0.00;0.00;;;16.20;62.90;;;;;;4211225;28;20060;-43
2021/04/10 03:28:56;;;;;;;0.00;0.00;;;16.30;62.60;;;;;;4212208;28;20051;-41
2021/04/10 03:31:18;;;;;;;0.70;0.70;;;16.30;62.30;;;;;;4211438;28;20490;-41
2021/04/10 03:33:46;;;;;;;0.00;0.00;;;16.40;62.20;;;;;;4211968;28;20105;-41
2021/04/10 03:36:09;;;;;;;0.45;0.32;;;16.40;62.10;;;;;;4211772;28;20478;-41
2021/04/10 03:38:33;;;;;;;0.00;0.00;;;16.40;61.90;;;;;;4211119;28;20115;-41
2021/04/10 03:40:57;;;;;;;0.00;0.00;;;16.40;61.90;;;;;;4194460;28;20048;-41
2021/04/10 03:43:21;;;;;;;0.70;0.55;;;16.30;62.10;;;;;;4208728;28;20076;-41
2021/04/10 03:45:47;;;;;;;0.00;0.00;;;16.20;62.40;;;;;;4210819;28;20102;-41
2021/04/10 03:48:21;;;;;;;0.00;0.00;;;16.20;62.70;;;;;;4211102;28;20067;-41
2021/04/10 03:50:47;;;;;;;0.00;0.00;;;16.20;62.70;;;;;;4210883;28;20056;-41
2021/04/10 03:53:08;;;;;;;;;;;16.40;62.20;;;;;;4212808;28;20513;-40
2021/04/10 03:55:29;;;;;;;0.00;0.00;;;16.40;61.80;;;;;;4210767;28;20014;-41
2021/04/10 03:57:52;;;;;;;0.00;0.00;;;16.40;61.70;;;;;;4212168;28;20791;-41
2021/04/10 04:00:14;;;;;;;2.63;1.38;;;16.40;61.60;;;;;;4212207;28;20082;-41
2021/04/10 04:02:39;;;;;;;0.00;0.00;;;16.40;61.90;;;;;;4212155;28;20055;-41
2021/04/10 04:05:00;;;;;;;0.00;0.00;;;16.30;62.10;;;;;;4211786;28;20137;-41
2021/04/10 04:07:21;;;;;;;0.00;0.00;;;16.20;62.40;;;;;;4212052;28;20078;-41
2021/04/10 04:09:41;;;;;;;0.00;0.00;;;16.30;62.40;;;;;;4212073;28;20502;-41
2021/04/10 04:12:03;;;;;;;0.00;0.00;;;16.30;62.30;;;;;;4212228;28;20502;-41
2021/04/10 04:14:24;;;;;;;;;;;16.30;62.40;;;;;;4212204;28;20047;-41
2021/04/10 04:16:45;;;;;;;0.17;0.17;;;16.20;62.70;;;;;;4211547;28;20451;-41
2021/04/10 04:19:07;;;;;;;0.00;0.00;;;16.20;62.80;;;;;;4211884;28;20511;-43
2021/04/10 04:21:28;;;;;;;0.20;0.20;;;16.30;62.50;;;;;;4195348;28;20049;-42
2021/04/10 04:23:49;;;;;;;0.00;0.00;;;16.30;62.40;;;;;;4202795;28;20458;-41
2021/04/10 04:26:10;;;;;;;0.25;0.15;;;16.30;62.20;;;;;;4206113;28;20052;-42
2021/04/10 04:28:31;;;;;;;0.00;0.00;;;16.30;62.30;;;;;;4212124;28;20082;-42
2021/04/10 04:30:51;;;;;;;0.00;0.00;;;16.20;62.60;;;;;;4211645;28;20059;-41
2021/04/10 04:33:15;;;;;;;0.00;0.00;;;16.10;62.70;;;;;;4212112;28;20052;-41
2021/04/10 04:35:36;;;;;;;0.00;0.00;;;16.10;62.80;;;;;;4211664;28;20051;-41
2021/04/10 04:37:58;;;;;;;0.00;0.00;;;16.00;63.00;;;;;;4212015;28;20059;-41
2021/04/10 04:40:19;;;;;;;0.00;0.00;;;16.00;63.40;;;;;;4211523;28;20048;-41
2021/04/10 04:42:40;;;;;;;0.25;0.25;;;16.20;62.80;;;;;;4210677;28;20158;-42
2021/04/10 04:45:01;;;;;;;;;;;16.40;62.10;;;;;;4212550;28;20105;-42
2021/04/10 04:47:22;;;;;;;0.00;0.00;;;16.50;61.40;;;;;;4214774;28;19924;-41
2021/04/10 04:49:46;;;;;;;0.00;0.00;;;16.60;61.10;;;;;;4214515;28;20117;-42
2021/04/10 04:52:08;;;;;;;0.00;0.00;;;16.50;61.10;;;;;;4214779;28;20056;-42
2021/04/10 04:54:29;;;;;;;0.00;0.00;;;16.50;61.00;;;;;;4214774;28;20067;-41
2021/04/10 04:56:50;;;;;;;0.00;0.00;;;16.40;61.30;;;;;;4214650;28;20059;-41
2021/04/10 04:59:11;;;;;;;1.15;0.70;;;16.30;61.70;;;;;;4214410;28;20135;-41
2021/04/10 05:01:32;;;;;;;0.00;0.00;;;16.30;61.80;;;;;;4214715;28;20138;-42
2021/04/10 05:03:52;;;;;;;3.33;0.63;;;16.30;61.70;;;;;;4214762;28;20486;-41
2021/04/10 05:06:13;;;;;;;0.00;0.00;;;16.20;61.60;;;;;;4214195;28;20113;-41
2021/04/10 05:08:38;;;;;;;0.00;0.00;;;16.20;61.90;;;;;;4214591;28;20052;-41
2021/04/10 05:10:59;;;;;;;0.00;0.00;;;16.10;62.10;;;;;;4214160;28;20051;-41
2021/04/10 05:13:20;;;;;;;0.10;0.10;;;16.10;62.00;;;;;;4214521;28;20048;-41
2021/04/10 05:15:43;;;;;;;1.55;0.90;;;16.10;62.20;;;;;;4214281;28;20066;-41
2021/04/10 05:18:04;;;;;;;0.08;0.08;;;16.00;62.40;;;;;;4214340;28;20145;-41
2021/04/10 05:20:25;;;;;;;;;;;16.00;62.60;;;;;;4214560;28;20059;-41
2021/04/10 05:22:52;;;;;;;0.00;0.00;;;16.00;62.30;;;;;;4213226;28;20386;-41
2021/04/10 05:25:14;;;;;;;0.00;0.00;;;16.10;61.70;;;;;;4214191;28;20063;-40
2021/04/10 05:27:35;;;;;;;0.00;0.00;;;16.20;61.60;;;;;;4214112;28;20086;-41
2021/04/10 05:29:56;;;;;;;0.00;0.00;;;16.40;61.50;;;;;;4213514;28;20062;-41
2021/04/10 05:32:17;;;;;;;0.22;0.22;;;16.70;60.40;;;;;;4213997;28;20508;-41
2021/04/10 05:34:38;;;;;;;0.00;0.00;;;17.00;59.50;;;;;;4213487;28;20056;-42
2021/04/10 05:36:59;;;;;;;0.00;0.00;;;17.10;59.20;;;;;;4196270;28;20136;-41
2021/04/10 05:39:19;;;;;;;0.00;0.00;;;17.10;59.80;;;;;;4201260;28;20094;-41
2021/04/10 05:41:44;;;;;;;0.00;0.00;;;17.10;59.10;;;;;;4213940;28;20052;-45
2021/04/10 05:44:05;;;;;;;0.00;0.00;;;17.00;59.10;;;;;;4210384;28;20475;-46
2021/04/10 05:46:26;;;;;;;0.00;0.00;;;16.90;59.40;;;;;;4213428;28;20071;-41
2021/04/10 05:48:47;;;;;;;0.20;0.20;;;16.80;59.80;;;;;;4210965;28;20070;-45
2021/04/10 05:51:08;;;;;;;0.00;0.00;;;16.70;60.10;;;;;;4213938;28;20796;-41
2021/04/10 05:53:29;;;;;;;0.52;0.52;;;16.60;60.40;;;;;;4213684;28;20048;-42
2021/04/10 05:55:51;;;;;;;0.00;0.00;;;16.50;60.70;;;;;;4213213;28;20079;-41
2021/04/10 05:58:12;;;;;;;0.00;0.00;;;16.40;61.20;;;;;;4213648;28;20052;-41
2021/04/10 06:00:33;;;;;;;0.00;0.00;;;16.40;61.10;;;;;;4213606;28;20048;-41
2021/04/10 06:02:55;;;;;;;0.00;0.00;;;16.40;60.90;;;;;;4213515;28;20556;-41
2021/04/10 06:05:18;;;;;;;0.00;0.00;;;16.50;60.70;;;;;;4213413;28;20052;-41
2021/04/10 06:07:39;;;;;;;0.20;0.20;;;16.40;60.90;;;;;;4213509;28;20406;-41
2021/04/10 06:10:00;;;;;;;0.00;0.00;;;16.40;60.90;;;;;;4213501;28;20134;-41
2021/04/10 06:12:21;;;;;;;0.00;0.00;;;16.40;60.90;;;;;;4213230;28;20512;-41
2021/04/10 06:14:43;;;;;;;0.00;0.00;;;16.40;60.90;;;;;;4213171;28;20121;-40
2021/04/10 06:17:04;;;;;;;0.45;0.45;;;16.40;61.00;;;;;;4213468;28;20055;-41
2021/04/10 06:19:25;;;;;;;0.68;0.68;;;16.50;60.80;;;;;;4213157;28;20055;-41
2021/04/10 06:21:47;;;;;;;0.00;0.00;;;16.60;59.90;;;;;;4213272;28;20430;-41
2021/04/10 06:24:08;;;;;;;;;;;16.80;58.90;;;;;;4213740;28;20048;-41
2021/04/10 06:26:28;;;;;;;0.00;0.00;;;16.90;58.40;;;;;;4213183;28;20370;-41
2021/04/10 06:28:49;;;;;;;7.20;1.70;;;16.90;58.10;;;;;;4211634;28;20514;-41
2021/04/10 06:31:10;;;;;;;0.22;0.22;;;16.80;58.10;;;;;;4211838;28;20125;-41
2021/04/10 06:33:32;;;;;;;0.00;0.00;;;16.70;58.20;;;;;;4211813;28;20059;-47
2021/04/10 06:35:52;;;;;;;0.05;0.05;;;16.70;58.50;;;;;;4212803;28;20056;-41
2021/04/10 06:38:15;;;;;;;0.00;0.00;;;16.70;58.30;;;;;;4213036;28;20079;-41
2021/04/10 06:40:37;;;;;;;0.00;0.00;;;16.70;57.80;;;;;;4212563;28;20482;-41
2021/04/10 06:42:58;;;;;;;;;;;16.70;57.60;;;;;;4212721;28;20391;-42
2021/04/10 06:45:19;;;;;;;0.32;0.32;;;16.70;57.60;;;;;;4212187;28;20245;-41
2021/04/10 06:47:43;;;;;;;0.98;0.55;;;16.60;57.80;;;;;;4209111;28;20080;-42
2021/04/10 06:50:06;;;;;;;2.42;0.98;;;16.50;57.80;;;;;;4212687;28;20135;-41
2021/04/10 06:52:28;;;;;;;0.00;0.00;;;16.30;57.30;;;;;;4212618;28;20048;-42
2021/04/10 06:54:56;;;;;;;1.52;1.25;;;16.20;57.70;;;;;;4212997;28;20114;-41
2021/04/10 06:57:19;;;;;;;0.10;0.10;;;16.20;58.20;;;;;;4211396;28;20047;-41
2021/04/10 06:59:46;;;;;;;2.45;0.35;;;16.00;58.20;;;;;;4212838;28;20130;-42
2021/04/10 07:02:11;;;;;;;0.35;0.35;;;16.00;58.00;;;;;;4212329;28;20352;-42
2021/04/10 07:04:33;;;;;;;0.00;0.00;;;15.80;57.60;;;;;;4212686;28;20052;-41
2021/04/10 07:06:53;;;;;;;0.13;0.13;;;15.70;57.60;;;;;;4212656;28;20048;-41
2021/04/10 07:09:15;;;;;;;0.00;0.00;;;15.60;57.60;;;;;;4211734;28;20051;-42
2021/04/10 07:11:36;;;;;;;0.00;0.00;;;15.50;57.30;;;;;;4212497;28;20058;-41
2021/04/10 07:13:59;;;;;;;0.45;0.45;;;15.40;57.60;;;;;;4212270;28;20429;-41
2021/04/10 07:16:20;;;;;;;0.10;0.10;;;15.30;57.40;;;;;;4212182;28;20430;-42
2021/04/10 07:18:43;;;;;;;1.67;1.55;;;15.30;57.30;;;;;;4212372;28;20471;-43
2021/04/10 07:21:17;;;;;;;0.00;0.00;;;15.20;57.10;;;;;;4195776;28;20138;-41
2021/04/10 07:23:44;;;;;;;0.00;0.00;;;15.20;57.70;;;;;;4195844;28;20102;-41
2021/04/10 07:26:05;;;;;;;0.00;0.00;;;15.40;57.00;;;;;;4195581;28;20060;-45
2021/04/10 07:28:28;;;;;;;0.00;0.00;;;15.60;56.80;;;;;;4195927;28;20478;-44
2021/04/10 07:30:55;;;;;;;0.00;0.00;;;15.70;56.70;;;;;;4211384;28;20056;-41
2021/04/10 07:33:22;;;;;;;0.00;0.00;;;15.80;56.40;;;;;;4212328;28;20514;-41
2021/04/10 07:35:43;;;;;;;0.00;0.00;;;15.80;56.40;;;;;;4210964;28;20055;-41
2021/04/10 07:38:05;;;;;;;0.00;0.00;;;15.70;56.20;;;;;;4212329;28;20052;-41
2021/04/10 07:40:27;;;;;;;0.00;0.00;;;15.60;55.60;;;;;;4212314;28;20060;-41
2021/04/10 07:42:48;;;;;;;0.10;0.10;;;15.60;55.00;;;;;;4212282;28;20510;-42
2021/04/10 07:45:24;;;;;;;0.00;0.00;;;15.50;54.90;;;;;;4211625;28;20059;-41
2021/04/10 07:47:45;;;;;;;1.65;1.33;;;15.40;54.90;;;;;;4205816;28;20052;-41
2021/04/10 07:50:18;;;;;;;1.02;0.93;;;15.30;55.10;;;;;;4212071;28;20048;-41
2021/04/10 07:52:39;;;;;;;0.10;0.10;;;15.20;54.90;;;;;;4212227;28;20063;-41
2021/04/10 07:55:01;;;;;;;40.20;1.38;;;15.20;54.40;;;;;;4212185;28;20437;-42
2021/04/10 07:57:22;;;;;;;0.13;0.13;;;15.10;54.30;;;;;;4211862;28;20062;-41
2021/04/10 07:59:53;;;;;;;1.08;1.08;;;15.00;54.60;;;;;;4212234;28;20470;-42
2021/04/10 08:02:16;;;;;;;0.00;0.00;;;15.00;54.80;;;;;;4212002;28;20063;-41
2021/04/10 08:04:39;;;;;;;0.00;0.00;;;15.00;55.00;;;;;;4212151;28;20052;-50
2021/04/10 08:07:00;;;;;;;0.00;0.00;;;15.10;54.60;;;;;;4211906;28;20517;-42
2021/04/10 08:09:34;;;;;;;0.00;0.00;;;15.20;54.10;;;;;;4210985;28;20054;-41
2021/04/10 08:11:58;;;;;;;0.08;0.08;;;15.40;53.50;;;;;;4212036;28;20040;-42
2021/04/10 08:14:22;;;;;;;1.35;0.80;;;15.50;53.80;;;;;;4211413;28;20506;-41
2021/04/10 08:16:45;;;;;;;0.20;0.20;;;15.50;53.90;;;;;;4210457;28;20055;-41
2021/04/10 08:19:06;;;;;;;0.00;0.00;;;15.50;53.70;;;;;;4210201;28;20052;-43
2021/04/10 08:21:40;;;;;;;0.00;0.00;;;15.50;53.80;;;;;;4213102;28;20055;-43
2021/04/10 08:24:02;;;;;;;0.00;0.00;;;15.50;53.80;;;;;;4203359;28;20054;-42
2021/04/10 08:26:24;;;;;;;0.00;0.00;;;15.40;53.60;;;;;;4213830;28;20048;-41
2021/04/10 08:28:46;;;;;;;1.20;0.28;;;15.40;54.30;;;;;;4209297;28;20047;-41
2021/04/10 08:31:06;;;;;;;0.00;0.00;;;15.30;53.60;;;;;;4214374;28;20087;-41
2021/04/10 08:33:27;;;;;;;0.43;0.43;;;15.20;53.40;;;;;;4214873;28;20091;-41
2021/04/10 08:35:48;;;;;;;0.35;0.35;;;15.20;53.60;;;;;;4214395;28;20052;-41
2021/04/10 08:38:10;;;;;;;;;;;15.20;53.50;;;;;;4215136;28;20048;-41
2021/04/10 08:40:31;;;;;;;0.00;0.00;;;15.10;53.20;;;;;;4214672;28;20404;-45
2021/04/10 08:42:56;;;;;;;0.00;0.00;;;15.00;53.60;;;;;;4214650;28;20075;-41
2021/04/10 08:45:23;;;;;;;2.53;1.00;;;15.00;53.90;;;;;;4213775;28;20060;-41
2021/04/10 08:47:44;;;;;;;0.00;0.00;;;15.00;54.40;;;;;;4214475;28;20048;-41
2021/04/10 08:50:22;;;;;;;0.00;0.00;;;15.00;54.60;;;;;;4214264;28;20064;-41
2021/04/10 08:52:43;;;;;;;0.00;0.00;;;15.00;54.40;;;;;;4212432;28;20097;-41
2021/04/10 08:55:10;;;;;;;0.00;0.00;;;15.00;54.10;;;;;;4213674;28;20117;-41
2021/04/10 08:57:38;;;;;;;0.10;0.10;;;14.90;53.80;;;;;;4213989;28;20498;-40
2021/04/10 09:00:18;;;;;;;0.22;0.22;;;14.90;54.90;;;;;;4214370;28;20067;-46
2021/04/10 09:02:53;;;;;;;2.53;0.52;;;14.80;53.80;;;;;;4213613;28;20730;-42
2021/04/10 09:05:15;;;;;;;0.00;0.00;;;14.80;54.70;;;;;;4214196;28;20059;-43
2021/04/10 09:08:05;;;;;;;;;;;14.80;54.10;;;;;;4214701;28;20075;-41
2021/04/10 09:10:59;;;;;;;0.57;0.50;;;15.00;53.80;;;;;;4213918;28;19924;-41
2021/04/10 09:13:42;;;;;;;0.10;0.10;;;15.70;53.20;;;;;;4162082;28;20146;-42
2021/04/10 09:16:40;;;;;;;0.35;0.35;;;16.20;51.20;;;;;;4213529;28;20456;-41
2021/04/10 09:19:05;;;;;;;0.00;0.00;;;16.80;49.90;;;;;;4214063;28;20093;-41
2021/04/10 09:21:41;;;;;;;0.00;0.00;;;17.40;48.60;;;;;;4214023;28;20052;-42
2021/04/10 09:24:24;;;;;;;0.10;0.10;;;17.80;48.10;;;;;;4213637;28;20051;-41
2021/04/10 09:27:04;;;;;;;1.20;1.10;;;18.20;47.00;;;;;;4212410;28;20395;-42
2021/04/10 09:29:26;;;;;;;0.00;0.00;;;18.30;46.40;;;;;;4213394;28;20109;-42
2021/04/10 09:31:49;;;;;;;0.00;0.00;;;18.30;45.90;;;;;;4212700;28;20048;-42
2021/04/10 09:34:43;;;;;;;0.20;0.20;;;18.30;46.20;;;;;;4213332;28;20410;-41
2021/04/10 09:37:06;;;;;;;0.50;0.50;;;18.20;46.40;;;;;;4213109;28;20150;-41
2021/04/10 09:39:50;;;;;;;15.77;1.25;;;18.10;46.90;;;;;;4213453;28;20051;-41
2021/04/10 09:42:31;;;;;;;0.10;0.10;;;18.10;46.60;;;;;;4196953;28;20059;-41
2021/04/10 09:45:05;;;;;;;0.00;0.00;;;18.00;46.00;;;;;;4197932;28;20055;-42
2021/04/10 09:47:26;;;;;;;0.00;0.00;;;17.90;46.10;;;;;;4196779;28;20049;-42
2021/04/10 09:49:48;;;;;;;0.00;0.00;;;17.90;46.70;;;;;;4202812;28;20086;-48
2021/04/10 09:52:14;;;;;;;0.00;0.00;;;17.70;46.70;;;;;;4213731;28;20048;-47
2021/04/10 09:54:35;;;;;;;0.00;0.00;;;17.80;47.00;;;;;;4213298;28;20051;-45
2021/04/10 09:56:56;;;;;;;0.17;0.17;;;17.90;47.10;;;;;;4212976;28;20056;-44
2021/04/10 09:59:17;;;;;;;0.10;0.10;;;18.00;46.80;;;;;;4213462;28;20056;-45
2021/04/10 10:01:39;;;;;;;0.30;0.30;;;18.10;46.70;;;;;;4213071;28;20059;-45
2021/04/10 10:04:11;;;;;;;1.17;0.95;;;18.00;46.50;;;;;;4212856;28;20052;-42
2021/04/10 10:06:39;;;;;;;0.10;0.10;;;17.90;46.80;;;;;;4213165;28;20394;-48
2021/04/10 10:09:26;;;;;;;0.15;0.05;;;17.80;47.10;;;;;;4213123;28;20055;-43
2021/04/10 10:11:51;;;;;;;0.22;0.22;;;17.60;47.10;;;;;;4201021;28;20494;-41
2021/04/10 10:14:12;;;;;;;0.32;0.32;;;17.40;47.40;;;;;;4198695;28;20052;-44
2021/04/10 10:16:33;;;;;;;1.95;1.08;;;17.40;48.10;;;;;;4213077;28;20148;-42
2021/04/10 10:18:54;;;;;;;0.15;0.15;;;17.50;48.30;;;;;;4212981;28;20528;-44
2021/04/10 10:21:17;;;;;;;8.25;2.28;;;17.60;47.90;;;;;;4212776;28;20052;-42
2021/04/10 10:23:39;;;;;;;2.65;2.33;;;17.60;48.20;;;;;;4212899;28;20052;-43
2021/04/10 10:26:07;;;;;;;4.38;2.88;;;17.60;48.10;;;;;;4195020;28;20048;-41
2021/04/10 10:28:28;;;;;;;1.05;1.05;;;17.50;47.50;;;;;;4196368;28;20134;-42
2021/04/10 10:30:50;;;;;;;2.35;2.25;;;17.70;48.10;;;;;;4204652;28;20091;-42
2021/04/10 10:33:11;;;;;;;3.20;2.08;;;17.70;47.60;;;;;;4213081;28;20062;-41
2021/04/10 10:35:33;;;;;;;;;;;17.70;47.70;;;;;;4213020;28;20095;-41
2021/04/10 10:37:54;;;;;;;;;;;17.70;47.90;;;;;;4213394;28;19923;-41
2021/04/10 10:40:21;;;;;;;2.10;2.00;;;17.50;47.10;;;;;;4213101;28;19930;-44
2021/04/10 10:42:45;;;;;;;2.88;2.67;;;17.40;47.30;;;;;;4211766;28;20123;-45
2021/04/10 10:45:07;;;;;;;2.42;2.22;;;17.30;47.60;;;;;;4212325;28;20109;-42
2021/04/10 10:47:30;;;;;;;1.42;1.33;;;17.20;47.90;;;;;;4211889;28;20056;-43
2021/04/10 10:49:53;;;;;;;0.40;0.40;;;17.10;48.10;;;;;;4197010;28;20053;-42
2021/04/10 10:52:15;;;;;;;1.55;1.45;;;17.00;48.00;;;;;;4212106;28;20059;-41
2021/04/10 10:54:38;;;;;;;0.17;0.17;;;16.90;47.90;;;;;;4212397;28;20044;-41
2021/04/10 10:57:06;;;;;;;0.50;0.50;;;16.80;47.80;;;;;;4196129;28;20499;-42
2021/04/10 10:59:48;;;;;;;0.28;0.28;;;16.70;48.50;;;;;;4197432;28;20052;-43
2021/04/10 11:02:10;;;;;;;0.85;0.85;;;16.60;48.40;;;;;;4212459;28;20052;-42
2021/04/10 11:04:33;;;;;;;0.52;0.52;;;16.50;48.40;;;;;;4195519;28;20060;-43
2021/04/10 11:06:57;;;;;;;1.98;1.98;;;16.40;49.80;;;;;;4195530;28;20423;-51
2021/04/10 11:09:22;;;;;;;0.30;0.30;;;16.40;50.00;;;;;;4195662;28;20181;-41
2021/04/10 11:11:52;;;;;;;0.15;0.15;;;16.50;49.80;;;;;;4195639;28;20125;-44
2021/04/10 11:14:18;;;;;;;1.65;1.33;;;16.80;48.90;;;;;;4211939;28;20052;-44
2021/04/10 11:16:45;;;;;;;0.93;0.63;;;17.00;48.30;;;;;;4212309;28;20056;-41
2021/04/10 11:19:06;;;;;;;2.45;2.30;;;17.20;47.40;;;;;;4212088;28;20062;-41
2021/04/10 11:21:29;;;;;;;0.30;0.30;;;17.50;47.10;;;;;;4211936;28;20110;-42
2021/04/10 11:24:11;;;;;;;1.10;1.10;;;17.60;47.90;;;;;;4211919;28;20059;-41
2021/04/10 11:26:34;;;;;;;1.08;1.08;;;17.70;48.40;;;;;;4212124;28;20066;-41
2021/04/10 11:29:11;;;;;;;2.80;2.30;;;17.60;47.90;;;;;;4210194;28;20413;-41
2021/04/10 11:31:32;;;;;;;0.77;0.77;;;17.60;48.00;;;;;;4211132;28;20068;-40
2021/04/10 11:33:54;;;;;;;0.00;0.00;;;17.50;48.60;;;;;;4212342;28;20059;-40
2021/04/10 11:36:16;;;;;;;0.47;0.47;;;17.40;48.10;;;;;;4212315;28;20410;-40
2021/04/10 11:38:37;;;;;;;0.20;0.10;;;17.30;48.60;;;;;;4212988;28;20059;-39
2021/04/10 11:40:58;;;;;;;0.08;0.08;;;17.20;48.10;;;;;;4212465;28;20461;-40
2021/04/10 11:43:19;;;;;;;1.00;0.98;;;17.00;47.90;;;;;;4211221;28;20101;-39
2021/04/10 11:45:41;;;;;;;0.05;0.05;;;17.10;48.60;;;;;;4212251;28;20490;-40
2021/04/10 11:48:12;;;;;;;4.10;0.52;;;17.00;47.40;;;;;;4212181;28;20137;-40
2021/04/10 11:50:48;;;;;;;1.80;1.65;;;17.00;47.30;;;;;;4211582;28;20047;-40
2021/04/10 11:53:27;;;;;;;0.35;0.35;;;17.00;47.00;;;;;;4212088;28;20048;-40
2021/04/10 11:55:50;;;;;;;0.03;0.03;;;17.00;48.00;;;;;;4215574;28;20056;-39
2021/04/10 11:58:11;;;;;;;0.77;0.77;;;17.10;47.30;;;;;;4215569;28;20052;-41
2021/04/10 12:00:32;;;;;;;0.28;0.28;;;17.10;47.70;;;;;;4200228;28;20048;-39
2021/04/10 12:02:53;;;;;;;0.60;0.60;;;17.10;47.70;;;;;;4215278;28;20127;-39
2021/04/10 12:05:27;;;;;;;1.10;1.10;;;17.00;47.40;;;;;;4215132;28;20052;-40
2021/04/10 12:08:14;;;;;;;0.10;0.10;;;16.90;47.10;;;;;;4215106;28;20127;-40
2021/04/10 12:10:36;;;;;;;0.43;0.43;;;16.90;47.70;;;;;;4215078;28;20048;-39
2021/04/10 12:12:58;;;;;;;0.57;0.57;;;17.10;47.70;;;;;;4215116;28;20052;-40
2021/04/10 12:15:25;;;;;;;0.10;0.10;;;17.40;46.80;;;;;;4215220;28;20309;-40
2021/04/10 12:17:46;;;;;;;0.00;0.00;;;17.50;45.20;;;;;;4215118;28;20079;-40
2021/04/10 12:20:08;;;;;;;0.13;0.13;;;17.50;44.90;;;;;;4215010;28;20059;-40
2021/04/10 12:22:29;;;;;;;2.95;1.45;;;17.50;45.20;;;;;;4215255;28;20048;-40
2021/04/10 12:24:52;;;;;;;0.00;0.00;;;17.40;44.80;;;;;;4213958;28;20048;-39
2021/04/10 12:27:13;;;;;;;0.15;0.15;;;17.30;45.40;;;;;;4215238;28;20828;-39
2021/04/10 12:29:35;;;;;;;0.10;0.10;;;17.20;45.50;;;;;;4215090;28;20205;-37
2021/04/10 12:31:56;;;;;;;;;;;17.10;45.60;;;;;;4215342;28;20315;-38
2021/04/10 12:34:18;;;;;;;0.45;0.45;;;17.00;45.80;;;;;;4198289;28;20015;-39
2021/04/10 12:36:39;;;;;;;;;;;16.80;46.00;;;;;;4212848;28;20426;-40